sensor_id;sensor_type;location;lat;lon;timestamp;P1;durP1;ratioP1;P2;durP2;ratioP2
24216;SDS011;12356;49.386;8.688;2023-07-13T00:00:13;3.03;;;1.38;;
24216;SDS011;12356;49.386;8.688;2023-07-13T00:02:46;4.43;;;1.70;;
24216;SDS011;12356;49.386;8.688;2023-07-13T00:05:16;5.10;;;1.60;;
24216;SDS011;12356;49.386;8.688;2023-07-13T00:07:47;3.88;;;1.50;;
24216;SDS011;12356;49.386;8.688;2023-07-13T00:10:18;3.00;;;1.52;;
24216;SDS011;12356;49.386;8.688;2023-07-13T00:12:49;3.53;;;1.50;;
24216;SDS011;12356;49.386;8.688;2023-07-13T00:15:24;3.80;;;1.67;;
24216;SDS011;12356;49.386;8.688;2023-07-13T00:17:56;3.45;;;1.80;;
24216;SDS011;12356;49.386;8.688;2023-07-13T00:20:26;2.70;;;1.55;;
24216;SDS011;12356;49.386;8.688;2023-07-13T00:22:57;4.78;;;1.65;;
24216;SDS011;12356;49.386;8.688;2023-07-13T00:25:27;3.00;;;1.58;;
24216;SDS011;12356;49.386;8.688;2023-07-13T00:27:58;2.88;;;1.60;;
24216;SDS011;12356;49.386;8.688;2023-07-13T00:30:29;3.20;;;1.50;;
24216;SDS011;12356;49.386;8.688;2023-07-13T00:32:59;4.35;;;1.42;;
24216;SDS011;12356;49.386;8.688;2023-07-13T00:35:31;3.03;;;1.40;;
24216;SDS011;12356;49.386;8.688;2023-07-13T00:38:02;2.95;;;1.52;;
24216;SDS011;12356;49.386;8.688;2023-07-13T00:40:32;2.08;;;1.20;;
24216;SDS011;12356;49.386;8.688;2023-07-13T00:43:04;7.63;;;1.30;;
24216;SDS011;12356;49.386;8.688;2023-07-13T00:48:21;4.40;;;1.40;;
24216;SDS011;12356;49.386;8.688;2023-07-13T00:50:56;4.80;;;1.25;;
24216;SDS011;12356;49.386;8.688;2023-07-13T00:53:29;2.10;;;1.30;;
24216;SDS011;12356;49.386;8.688;2023-07-13T00:56:03;3.60;;;1.60;;
24216;SDS011;12356;49.386;8.688;2023-07-13T00:58:35;2.63;;;1.40;;
24216;SDS011;12356;49.386;8.688;2023-07-13T01:01:05;5.13;;;1.75;;
24216;SDS011;12356;49.386;8.688;2023-07-13T01:03:36;2.60;;;1.40;;
24216;SDS011;12356;49.386;8.688;2023-07-13T01:06:08;5.93;;;1.73;;
24216;SDS011;12356;49.386;8.688;2023-07-13T01:08:39;4.25;;;1.73;;
24216;SDS011;12356;49.386;8.688;2023-07-13T01:11:10;4.93;;;1.30;;
24216;SDS011;12356;49.386;8.688;2023-07-13T01:13:40;4.43;;;1.38;;
24216;SDS011;12356;49.386;8.688;2023-07-13T01:16:33;4.38;;;1.42;;
24216;SDS011;12356;49.386;8.688;2023-07-13T01:19:03;4.03;;;1.30;;
24216;SDS011;12356;49.386;8.688;2023-07-13T01:21:39;2.60;;;1.27;;
24216;SDS011;12356;49.386;8.688;2023-07-13T01:24:12;5.03;;;1.33;;
24216;SDS011;12356;49.386;8.688;2023-07-13T01:26:43;2.25;;;1.25;;
24216;SDS011;12356;49.386;8.688;2023-07-13T01:29:13;5.45;;;1.83;;
24216;SDS011;12356;49.386;8.688;2023-07-13T01:31:44;2.45;;;1.48;;
24216;SDS011;12356;49.386;8.688;2023-07-13T01:34:15;5.13;;;1.52;;
24216;SDS011;12356;49.386;8.688;2023-07-13T01:36:45;6.32;;;1.63;;
24216;SDS011;12356;49.386;8.688;2023-07-13T01:39:16;4.53;;;1.52;;
24216;SDS011;12356;49.386;8.688;2023-07-13T01:41:47;3.50;;;1.42;;
24216;SDS011;12356;49.386;8.688;2023-07-13T01:44:17;2.90;;;1.42;;
24216;SDS011;12356;49.386;8.688;2023-07-13T01:46:48;4.05;;;1.48;;
24216;SDS011;12356;49.386;8.688;2023-07-13T01:49:18;4.18;;;1.40;;
24216;SDS011;12356;49.386;8.688;2023-07-13T01:51:49;2.95;;;1.40;;
24216;SDS011;12356;49.386;8.688;2023-07-13T01:54:20;5.40;;;1.58;;
24216;SDS011;12356;49.386;8.688;2023-07-13T01:56:50;3.70;;;1.27;;
24216;SDS011;12356;49.386;8.688;2023-07-13T01:59:21;2.58;;;1.50;;
24216;SDS011;12356;49.386;8.688;2023-07-13T02:01:51;4.60;;;1.40;;
24216;SDS011;12356;49.386;8.688;2023-07-13T02:04:22;4.63;;;1.38;;
24216;SDS011;12356;49.386;8.688;2023-07-13T02:06:52;3.08;;;1.50;;
24216;SDS011;12356;49.386;8.688;2023-07-13T02:09:25;2.65;;;1.33;;
24216;SDS011;12356;49.386;8.688;2023-07-13T02:11:55;4.32;;;1.58;;
24216;SDS011;12356;49.386;8.688;2023-07-13T02:14:26;3.05;;;1.48;;
24216;SDS011;12356;49.386;8.688;2023-07-13T02:16:57;2.20;;;1.38;;
24216;SDS011;12356;49.386;8.688;2023-07-13T02:19:27;4.15;;;1.60;;
24216;SDS011;12356;49.386;8.688;2023-07-13T02:21:58;4.78;;;1.50;;
24216;SDS011;12356;49.386;8.688;2023-07-13T02:24:28;3.58;;;1.70;;
24216;SDS011;12356;49.386;8.688;2023-07-13T02:26:59;3.47;;;1.65;;
24216;SDS011;12356;49.386;8.688;2023-07-13T02:29:29;2.92;;;1.60;;
24216;SDS011;12356;49.386;8.688;2023-07-13T02:32:00;4.60;;;1.52;;
24216;SDS011;12356;49.386;8.688;2023-07-13T02:34:30;4.00;;;1.40;;
24216;SDS011;12356;49.386;8.688;2023-07-13T02:37:01;2.60;;;1.52;;
24216;SDS011;12356;49.386;8.688;2023-07-13T02:39:32;1.83;;;1.40;;
24216;SDS011;12356;49.386;8.688;2023-07-13T02:42:03;3.17;;;1.65;;
24216;SDS011;12356;49.386;8.688;2023-07-13T02:44:34;2.35;;;1.52;;
24216;SDS011;12356;49.386;8.688;2023-07-13T02:47:04;4.85;;;1.67;;
24216;SDS011;12356;49.386;8.688;2023-07-13T02:49:35;4.93;;;1.30;;
24216;SDS011;12356;49.386;8.688;2023-07-13T02:52:05;2.33;;;1.70;;
24216;SDS011;12356;49.386;8.688;2023-07-13T02:54:36;3.17;;;1.52;;
24216;SDS011;12356;49.386;8.688;2023-07-13T02:57:07;3.35;;;1.70;;
24216;SDS011;12356;49.386;8.688;2023-07-13T02:59:37;3.15;;;1.85;;
24216;SDS011;12356;49.386;8.688;2023-07-13T03:02:08;3.70;;;1.77;;
24216;SDS011;12356;49.386;8.688;2023-07-13T03:04:39;2.55;;;1.60;;
24216;SDS011;12356;49.386;8.688;2023-07-13T03:07:11;2.78;;;1.92;;
24216;SDS011;12356;49.386;8.688;2023-07-13T03:09:41;3.28;;;1.60;;
24216;SDS011;12356;49.386;8.688;2023-07-13T03:12:12;4.93;;;1.60;;
24216;SDS011;12356;49.386;8.688;2023-07-13T03:14:42;3.25;;;1.75;;
24216;SDS011;12356;49.386;8.688;2023-07-13T03:17:13;2.75;;;1.80;;
24216;SDS011;12356;49.386;8.688;2023-07-13T03:19:43;3.20;;;1.70;;
24216;SDS011;12356;49.386;8.688;2023-07-13T03:22:14;4.50;;;1.63;;
24216;SDS011;12356;49.386;8.688;2023-07-13T03:24:45;3.45;;;1.80;;
24216;SDS011;12356;49.386;8.688;2023-07-13T03:27:17;4.35;;;1.90;;
24216;SDS011;12356;49.386;8.688;2023-07-13T03:29:47;3.60;;;1.95;;
24216;SDS011;12356;49.386;8.688;2023-07-13T03:32:18;3.97;;;1.80;;
24216;SDS011;12356;49.386;8.688;2023-07-13T03:34:48;5.10;;;1.73;;
24216;SDS011;12356;49.386;8.688;2023-07-13T03:37:19;4.20;;;1.80;;
24216;SDS011;12356;49.386;8.688;2023-07-13T03:39:50;2.85;;;1.80;;
24216;SDS011;12356;49.386;8.688;2023-07-13T03:42:20;4.40;;;2.00;;
24216;SDS011;12356;49.386;8.688;2023-07-13T03:44:51;3.22;;;1.95;;
24216;SDS011;12356;49.386;8.688;2023-07-13T03:47:22;2.75;;;1.90;;
24216;SDS011;12356;49.386;8.688;2023-07-13T03:49:53;4.80;;;1.95;;
24216;SDS011;12356;49.386;8.688;2023-07-13T03:52:23;3.88;;;2.00;;
24216;SDS011;12356;49.386;8.688;2023-07-13T03:54:54;3.85;;;2.00;;
24216;SDS011;12356;49.386;8.688;2023-07-13T03:57:25;4.63;;;1.92;;
24216;SDS011;12356;49.386;8.688;2023-07-13T03:59:55;3.65;;;2.00;;
24216;SDS011;12356;49.386;8.688;2023-07-13T04:02:26;3.55;;;2.08;;
24216;SDS011;12356;49.386;8.688;2023-07-13T04:04:56;5.35;;;2.50;;
24216;SDS011;12356;49.386;8.688;2023-07-13T04:07:27;6.45;;;1.92;;
24216;SDS011;12356;49.386;8.688;2023-07-13T04:09:57;4.38;;;2.15;;
24216;SDS011;12356;49.386;8.688;2023-07-13T04:12:28;5.90;;;2.13;;
24216;SDS011;12356;49.386;8.688;2023-07-13T04:14:58;5.10;;;1.88;;
24216;SDS011;12356;49.386;8.688;2023-07-13T04:17:29;4.95;;;1.90;;
24216;SDS011;12356;49.386;8.688;2023-07-13T04:20:00;3.72;;;1.83;;
24216;SDS011;12356;49.386;8.688;2023-07-13T04:22:30;3.63;;;2.13;;
24216;SDS011;12356;49.386;8.688;2023-07-13T04:25:01;2.95;;;1.70;;
24216;SDS011;12356;49.386;8.688;2023-07-13T04:27:31;2.28;;;1.88;;
24216;SDS011;12356;49.386;8.688;2023-07-13T04:30:02;6.38;;;2.00;;
24216;SDS011;12356;49.386;8.688;2023-07-13T04:32:33;4.80;;;1.80;;
24216;SDS011;12356;49.386;8.688;2023-07-13T04:35:03;2.85;;;1.75;;
24216;SDS011;12356;49.386;8.688;2023-07-13T04:37:34;4.65;;;2.10;;
24216;SDS011;12356;49.386;8.688;2023-07-13T04:40:05;3.00;;;1.85;;
24216;SDS011;12356;49.386;8.688;2023-07-13T04:42:36;4.55;;;2.00;;
24216;SDS011;12356;49.386;8.688;2023-07-13T04:45:07;3.25;;;1.92;;
24216;SDS011;12356;49.386;8.688;2023-07-13T04:47:38;3.50;;;1.77;;
24216;SDS011;12356;49.386;8.688;2023-07-13T04:50:09;3.85;;;1.92;;
24216;SDS011;12356;49.386;8.688;2023-07-13T04:52:41;4.93;;;1.80;;
24216;SDS011;12356;49.386;8.688;2023-07-13T04:55:12;4.78;;;1.83;;
24216;SDS011;12356;49.386;8.688;2023-07-13T04:57:42;3.97;;;1.83;;
24216;SDS011;12356;49.386;8.688;2023-07-13T05:00:13;3.53;;;1.70;;
24216;SDS011;12356;49.386;8.688;2023-07-13T05:02:45;4.45;;;1.70;;
24216;SDS011;12356;49.386;8.688;2023-07-13T05:05:16;2.88;;;1.73;;
24216;SDS011;12356;49.386;8.688;2023-07-13T05:07:46;3.08;;;1.90;;
24216;SDS011;12356;49.386;8.688;2023-07-13T05:10:17;3.53;;;1.98;;
24216;SDS011;12356;49.386;8.688;2023-07-13T05:12:48;3.03;;;1.80;;
24216;SDS011;12356;49.386;8.688;2023-07-13T05:15:20;3.58;;;1.50;;
24216;SDS011;12356;49.386;8.688;2023-07-13T05:17:52;4.22;;;2.05;;
24216;SDS011;12356;49.386;8.688;2023-07-13T05:20:22;3.63;;;1.67;;
24216;SDS011;12356;49.386;8.688;2023-07-13T05:22:53;4.07;;;1.92;;
24216;SDS011;12356;49.386;8.688;2023-07-13T05:25:24;2.40;;;1.70;;
24216;SDS011;12356;49.386;8.688;2023-07-13T05:27:54;4.13;;;1.90;;
24216;SDS011;12356;49.386;8.688;2023-07-13T05:30:25;5.03;;;1.80;;
24216;SDS011;12356;49.386;8.688;2023-07-13T05:32:55;3.30;;;1.40;;
24216;SDS011;12356;49.386;8.688;2023-07-13T05:35:26;6.07;;;1.83;;
24216;SDS011;12356;49.386;8.688;2023-07-13T05:37:56;4.60;;;1.70;;
24216;SDS011;12356;49.386;8.688;2023-07-13T05:40:27;4.13;;;1.80;;
24216;SDS011;12356;49.386;8.688;2023-07-13T05:42:57;4.13;;;2.08;;
24216;SDS011;12356;49.386;8.688;2023-07-13T05:45:28;3.38;;;1.90;;
24216;SDS011;12356;49.386;8.688;2023-07-13T05:47:59;2.97;;;1.90;;
24216;SDS011;12356;49.386;8.688;2023-07-13T05:50:29;3.88;;;2.00;;
24216;SDS011;12356;49.386;8.688;2023-07-13T05:53:00;2.75;;;1.60;;
24216;SDS011;12356;49.386;8.688;2023-07-13T05:55:31;3.45;;;1.45;;
24216;SDS011;12356;49.386;8.688;2023-07-13T05:58:02;3.70;;;1.52;;
24216;SDS011;12356;49.386;8.688;2023-07-13T06:00:32;3.22;;;1.60;;
24216;SDS011;12356;49.386;8.688;2023-07-13T06:03:03;3.72;;;1.80;;
24216;SDS011;12356;49.386;8.688;2023-07-13T06:05:34;4.55;;;1.80;;
24216;SDS011;12356;49.386;8.688;2023-07-13T06:10:37;3.78;;;1.50;;
24216;SDS011;12356;49.386;8.688;2023-07-13T06:13:08;4.05;;;1.90;;
24216;SDS011;12356;49.386;8.688;2023-07-13T06:15:38;4.75;;;1.60;;
24216;SDS011;12356;49.386;8.688;2023-07-13T06:18:09;5.40;;;2.00;;
24216;SDS011;12356;49.386;8.688;2023-07-13T06:20:39;5.25;;;1.88;;
24216;SDS011;12356;49.386;8.688;2023-07-13T06:23:10;3.20;;;1.80;;
24216;SDS011;12356;49.386;8.688;2023-07-13T06:25:41;5.20;;;1.70;;
24216;SDS011;12356;49.386;8.688;2023-07-13T06:28:12;4.07;;;1.70;;
24216;SDS011;12356;49.386;8.688;2023-07-13T06:30:43;4.13;;;1.65;;
24216;SDS011;12356;49.386;8.688;2023-07-13T06:33:13;5.10;;;1.75;;
24216;SDS011;12356;49.386;8.688;2023-07-13T06:35:44;6.25;;;1.65;;
24216;SDS011;12356;49.386;8.688;2023-07-13T06:38:14;8.80;;;2.25;;
24216;SDS011;12356;49.386;8.688;2023-07-13T06:40:45;3.78;;;1.98;;
24216;SDS011;12356;49.386;8.688;2023-07-13T06:43:16;3.55;;;2.10;;
24216;SDS011;12356;49.386;8.688;2023-07-13T06:45:46;3.90;;;2.05;;
24216;SDS011;12356;49.386;8.688;2023-07-13T06:48:20;5.45;;;2.10;;
24216;SDS011;12356;49.386;8.688;2023-07-13T06:50:51;3.20;;;1.80;;
24216;SDS011;12356;49.386;8.688;2023-07-13T06:53:23;4.70;;;2.00;;
24216;SDS011;12356;49.386;8.688;2023-07-13T06:55:53;7.82;;;2.30;;
24216;SDS011;12356;49.386;8.688;2023-07-13T06:58:24;5.82;;;1.90;;
24216;SDS011;12356;49.386;8.688;2023-07-13T07:00:55;5.00;;;1.80;;
24216;SDS011;12356;49.386;8.688;2023-07-13T07:03:25;3.50;;;1.63;;
24216;SDS011;12356;49.386;8.688;2023-07-13T07:06:16;3.38;;;1.77;;
24216;SDS011;12356;49.386;8.688;2023-07-13T07:11:21;8.25;;;1.88;;
24216;SDS011;12356;49.386;8.688;2023-07-13T07:13:53;3.90;;;1.58;;
24216;SDS011;12356;49.386;8.688;2023-07-13T07:16:24;7.95;;;1.88;;
24216;SDS011;12356;49.386;8.688;2023-07-13T07:18:55;3.67;;;1.55;;
24216;SDS011;12356;49.386;8.688;2023-07-13T07:21:26;4.15;;;1.48;;
24216;SDS011;12356;49.386;8.688;2023-07-13T07:23:57;5.90;;;1.45;;
24216;SDS011;12356;49.386;8.688;2023-07-13T07:26:29;7.57;;;1.40;;
24216;SDS011;12356;49.386;8.688;2023-07-13T07:29:00;7.65;;;1.70;;
24216;SDS011;12356;49.386;8.688;2023-07-13T07:31:31;5.07;;;1.65;;
24216;SDS011;12356;49.386;8.688;2023-07-13T07:34:01;6.10;;;1.80;;
24216;SDS011;12356;49.386;8.688;2023-07-13T07:36:32;4.15;;;1.60;;
24216;SDS011;12356;49.386;8.688;2023-07-13T07:39:04;3.72;;;1.42;;
24216;SDS011;12356;49.386;8.688;2023-07-13T07:41:35;5.25;;;1.27;;
24216;SDS011;12356;49.386;8.688;2023-07-13T07:44:05;6.00;;;1.40;;
24216;SDS011;12356;49.386;8.688;2023-07-13T07:46:39;2.67;;;1.30;;
24216;SDS011;12356;49.386;8.688;2023-07-13T07:49:11;3.45;;;1.38;;
24216;SDS011;12356;49.386;8.688;2023-07-13T07:51:41;3.47;;;1.55;;
24216;SDS011;12356;49.386;8.688;2023-07-13T07:54:12;3.20;;;1.27;;
24216;SDS011;12356;49.386;8.688;2023-07-13T07:56:43;3.28;;;1.23;;
24216;SDS011;12356;49.386;8.688;2023-07-13T07:59:14;6.45;;;1.50;;
24216;SDS011;12356;49.386;8.688;2023-07-13T08:01:44;4.85;;;1.50;;
24216;SDS011;12356;49.386;8.688;2023-07-13T08:04:16;3.28;;;1.50;;
24216;SDS011;12356;49.386;8.688;2023-07-13T08:06:46;2.80;;;1.40;;
24216;SDS011;12356;49.386;8.688;2023-07-13T08:09:17;3.65;;;1.42;;
24216;SDS011;12356;49.386;8.688;2023-07-13T08:11:47;5.28;;;1.73;;
24216;SDS011;12356;49.386;8.688;2023-07-13T08:14:18;4.15;;;1.63;;
24216;SDS011;12356;49.386;8.688;2023-07-13T08:16:49;6.28;;;1.50;;
24216;SDS011;12356;49.386;8.688;2023-07-13T08:19:19;6.05;;;1.70;;
24216;SDS011;12356;49.386;8.688;2023-07-13T08:21:50;3.00;;;1.80;;
24216;SDS011;12356;49.386;8.688;2023-07-13T08:24:22;8.20;;;1.80;;
24216;SDS011;12356;49.386;8.688;2023-07-13T08:26:53;8.23;;;1.88;;
24216;SDS011;12356;49.386;8.688;2023-07-13T08:29:24;3.42;;;1.58;;
24216;SDS011;12356;49.386;8.688;2023-07-13T08:31:54;5.28;;;1.58;;
24216;SDS011;12356;49.386;8.688;2023-07-13T08:34:25;5.90;;;1.40;;
24216;SDS011;12356;49.386;8.688;2023-07-13T08:36:55;5.18;;;1.75;;
24216;SDS011;12356;49.386;8.688;2023-07-13T08:39:26;4.82;;;2.00;;
24216;SDS011;12356;49.386;8.688;2023-07-13T08:42:02;6.33;;;1.50;;
24216;SDS011;12356;49.386;8.688;2023-07-13T08:44:50;3.97;;;1.52;;
24216;SDS011;12356;49.386;8.688;2023-07-13T08:47:46;6.28;;;2.05;;
24216;SDS011;12356;49.386;8.688;2023-07-13T08:50:27;4.80;;;1.50;;
24216;SDS011;12356;49.386;8.688;2023-07-13T08:53:03;5.80;;;1.70;;
24216;SDS011;12356;49.386;8.688;2023-07-13T08:55:34;4.00;;;1.70;;
24216;SDS011;12356;49.386;8.688;2023-07-13T08:58:13;4.22;;;1.50;;
24216;SDS011;12356;49.386;8.688;2023-07-13T09:03:57;3.58;;;1.38;;
24216;SDS011;12356;49.386;8.688;2023-07-13T09:06:49;3.90;;;1.58;;
24216;SDS011;12356;49.386;8.688;2023-07-13T09:09:37;4.63;;;1.60;;
24216;SDS011;12356;49.386;8.688;2023-07-13T09:14:54;6.10;;;1.45;;
24216;SDS011;12356;49.386;8.688;2023-07-13T09:17:36;4.28;;;1.40;;
24216;SDS011;12356;49.386;8.688;2023-07-13T09:20:24;3.63;;;1.55;;
24216;SDS011;12356;49.386;8.688;2023-07-13T09:22:59;6.82;;;1.70;;
24216;SDS011;12356;49.386;8.688;2023-07-13T09:25:35;4.35;;;1.70;;
24216;SDS011;12356;49.386;8.688;2023-07-13T09:28:25;2.53;;;1.40;;
24216;SDS011;12356;49.386;8.688;2023-07-13T09:31:01;8.52;;;1.70;;
24216;SDS011;12356;49.386;8.688;2023-07-13T09:33:40;5.60;;;1.43;;
24216;SDS011;12356;49.386;8.688;2023-07-13T09:36:21;4.13;;;1.40;;
24216;SDS011;12356;49.386;8.688;2023-07-13T09:39:21;5.72;;;1.38;;
24216;SDS011;12356;49.386;8.688;2023-07-13T09:44:56;4.53;;;1.50;;
24216;SDS011;12356;49.386;8.688;2023-07-13T09:50:02;4.53;;;1.50;;
24216;SDS011;12356;49.386;8.688;2023-07-13T09:52:45;4.60;;;1.27;;
24216;SDS011;12356;49.386;8.688;2023-07-13T09:55:27;4.18;;;1.70;;
24216;SDS011;12356;49.386;8.688;2023-07-13T09:58:06;3.72;;;1.40;;
24216;SDS011;12356;49.386;8.688;2023-07-13T10:00:59;3.45;;;1.50;;
24216;SDS011;12356;49.386;8.688;2023-07-13T10:03:34;5.35;;;1.48;;
24216;SDS011;12356;49.386;8.688;2023-07-13T10:06:13;3.55;;;1.60;;
24216;SDS011;12356;49.386;8.688;2023-07-13T10:08:49;4.65;;;1.40;;
24216;SDS011;12356;49.386;8.688;2023-07-13T10:11:22;4.95;;;1.60;;
24216;SDS011;12356;49.386;8.688;2023-07-13T10:14:00;4.45;;;1.58;;
24216;SDS011;12356;49.386;8.688;2023-07-13T10:16:40;5.60;;;1.45;;
24216;SDS011;12356;49.386;8.688;2023-07-13T10:19:24;3.05;;;1.70;;
24216;SDS011;12356;49.386;8.688;2023-07-13T10:21:58;3.78;;;1.70;;
24216;SDS011;12356;49.386;8.688;2023-07-13T10:24:31;4.40;;;1.80;;
24216;SDS011;12356;49.386;8.688;2023-07-13T10:27:16;4.60;;;1.70;;
24216;SDS011;12356;49.386;8.688;2023-07-13T10:29:59;4.40;;;1.48;;
24216;SDS011;12356;49.386;8.688;2023-07-13T10:32:39;3.08;;;1.58;;
24216;SDS011;12356;49.386;8.688;2023-07-13T10:35:11;3.83;;;1.70;;
24216;SDS011;12356;49.386;8.688;2023-07-13T10:41:05;3.33;;;1.50;;
24216;SDS011;12356;49.386;8.688;2023-07-13T10:43:45;4.47;;;1.55;;
24216;SDS011;12356;49.386;8.688;2023-07-13T10:46:21;2.08;;;1.30;;
24216;SDS011;12356;49.386;8.688;2023-07-13T10:48:58;3.42;;;1.50;;
24216;SDS011;12356;49.386;8.688;2023-07-13T10:51:32;5.47;;;1.60;;
24216;SDS011;12356;49.386;8.688;2023-07-13T10:57:38;5.22;;;1.50;;
24216;SDS011;12356;49.386;8.688;2023-07-13T10:59:48;3.13;;;1.70;;
24216;SDS011;12356;49.386;8.688;2023-07-13T11:02:39;2.35;;;1.30;;
24216;SDS011;12356;49.386;8.688;2023-07-13T11:05:17;3.83;;;1.52;;
24216;SDS011;12356;49.386;8.688;2023-07-13T11:08:12;3.08;;;1.55;;
24216;SDS011;12356;49.386;8.688;2023-07-13T11:10:55;3.13;;;1.30;;
24216;SDS011;12356;49.386;8.688;2023-07-13T11:18:53;3.88;;;1.20;;
24216;SDS011;12356;49.386;8.688;2023-07-13T11:30:48;2.65;;;1.00;;
24216;SDS011;12356;49.386;8.688;2023-07-13T11:39:05;5.30;;;1.40;;
24216;SDS011;12356;49.386;8.688;2023-07-13T11:41:43;2.78;;;1.08;;
24216;SDS011;12356;49.386;8.688;2023-07-13T11:44:17;1.98;;;1.05;;
24216;SDS011;12356;49.386;8.688;2023-07-13T11:46:50;5.05;;;1.17;;
24216;SDS011;12356;49.386;8.688;2023-07-13T11:49:23;5.75;;;1.23;;
24216;SDS011;12356;49.386;8.688;2023-07-13T11:51:57;2.63;;;1.17;;
24216;SDS011;12356;49.386;8.688;2023-07-13T11:54:32;5.03;;;1.30;;
24216;SDS011;12356;49.386;8.688;2023-07-13T12:00:14;5.10;;;1.38;;
24216;SDS011;12356;49.386;8.688;2023-07-13T12:02:51;2.60;;;1.10;;
24216;SDS011;12356;49.386;8.688;2023-07-13T12:05:26;2.10;;;1.10;;
24216;SDS011;12356;49.386;8.688;2023-07-13T12:07:56;5.45;;;1.38;;
24216;SDS011;12356;49.386;8.688;2023-07-13T12:10:28;3.63;;;1.15;;
24216;SDS011;12356;49.386;8.688;2023-07-13T12:13:01;3.08;;;1.15;;
24216;SDS011;12356;49.386;8.688;2023-07-13T12:18:13;3.00;;;1.10;;
24216;SDS011;12356;49.386;8.688;2023-07-13T12:21:03;2.42;;;1.05;;
24216;SDS011;12356;49.386;8.688;2023-07-13T12:23:35;1.88;;;1.02;;
24216;SDS011;12356;49.386;8.688;2023-07-13T12:26:06;3.00;;;1.08;;
24216;SDS011;12356;49.386;8.688;2023-07-13T12:28:48;3.67;;;1.00;;
24216;SDS011;12356;49.386;8.688;2023-07-13T12:34:11;2.47;;;1.25;;
24216;SDS011;12356;49.386;8.688;2023-07-13T12:36:50;4.40;;;1.20;;
24216;SDS011;12356;49.386;8.688;2023-07-13T12:39:47;3.95;;;1.23;;
24216;SDS011;12356;49.386;8.688;2023-07-13T12:44:56;3.55;;;1.00;;
24216;SDS011;12356;49.386;8.688;2023-07-13T12:47:52;2.63;;;1.10;;
24216;SDS011;12356;49.386;8.688;2023-07-13T12:50:40;2.75;;;1.30;;
24216;SDS011;12356;49.386;8.688;2023-07-13T12:53:13;1.95;;;1.10;;
24216;SDS011;12356;49.386;8.688;2023-07-13T12:55:47;6.15;;;1.40;;
24216;SDS011;12356;49.386;8.688;2023-07-13T12:58:30;4.07;;;1.40;;
24216;SDS011;12356;49.386;8.688;2023-07-13T13:01:07;2.58;;;1.17;;
24216;SDS011;12356;49.386;8.688;2023-07-13T13:03:40;2.72;;;1.13;;
24216;SDS011;12356;49.386;8.688;2023-07-13T13:08:49;5.40;;;1.58;;
24216;SDS011;12356;49.386;8.688;2023-07-13T13:11:21;3.20;;;1.50;;
24216;SDS011;12356;49.386;8.688;2023-07-13T13:16:31;4.40;;;1.27;;
24216;SDS011;12356;49.386;8.688;2023-07-13T13:21:44;3.35;;;1.10;;
24216;SDS011;12356;49.386;8.688;2023-07-13T13:24:17;1.80;;;1.17;;
24216;SDS011;12356;49.386;8.688;2023-07-13T13:26:52;3.25;;;1.23;;
24216;SDS011;12356;49.386;8.688;2023-07-13T13:29:24;3.30;;;1.10;;
24216;SDS011;12356;49.386;8.688;2023-07-13T13:31:55;5.32;;;1.48;;
24216;SDS011;12356;49.386;8.688;2023-07-13T13:34:26;2.90;;;1.35;;
24216;SDS011;12356;49.386;8.688;2023-07-13T13:36:56;2.75;;;1.17;;
24216;SDS011;12356;49.386;8.688;2023-07-13T13:42:04;2.63;;;1.15;;
24216;SDS011;12356;49.386;8.688;2023-07-13T13:44:35;3.53;;;1.25;;
24216;SDS011;12356;49.386;8.688;2023-07-13T13:47:29;3.58;;;1.20;;
24216;SDS011;12356;49.386;8.688;2023-07-13T13:50:01;6.05;;;1.33;;
24216;SDS011;12356;49.386;8.688;2023-07-13T13:52:54;3.28;;;1.15;;
24216;SDS011;12356;49.386;8.688;2023-07-13T13:55:25;2.80;;;1.38;;
24216;SDS011;12356;49.386;8.688;2023-07-13T13:57:55;3.17;;;1.30;;
24216;SDS011;12356;49.386;8.688;2023-07-13T14:00:26;2.53;;;1.20;;
24216;SDS011;12356;49.386;8.688;2023-07-13T14:02:56;3.40;;;1.40;;
24216;SDS011;12356;49.386;8.688;2023-07-13T14:05:27;3.70;;;1.15;;
24216;SDS011;12356;49.386;8.688;2023-07-13T14:08:00;5.60;;;1.38;;
24216;SDS011;12356;49.386;8.688;2023-07-13T14:10:30;6.43;;;1.30;;
24216;SDS011;12356;49.386;8.688;2023-07-13T14:13:01;3.45;;;1.27;;
24216;SDS011;12356;49.386;8.688;2023-07-13T14:15:31;3.30;;;1.42;;
24216;SDS011;12356;49.386;8.688;2023-07-13T14:18:02;7.60;;;1.50;;
24216;SDS011;12356;49.386;8.688;2023-07-13T14:20:33;3.33;;;1.20;;
24216;SDS011;12356;49.386;8.688;2023-07-13T14:23:03;3.50;;;1.58;;
24216;SDS011;12356;49.386;8.688;2023-07-13T14:25:34;3.33;;;1.40;;
24216;SDS011;12356;49.386;8.688;2023-07-13T14:28:38;4.53;;;1.40;;
24216;SDS011;12356;49.386;8.688;2023-07-13T14:31:02;4.60;;;1.35;;
24216;SDS011;12356;49.386;8.688;2023-07-13T14:33:32;4.43;;;1.25;;
24216;SDS011;12356;49.386;8.688;2023-07-13T14:36:05;2.85;;;1.02;;
24216;SDS011;12356;49.386;8.688;2023-07-13T14:38:51;5.65;;;1.17;;
24216;SDS011;12356;49.386;8.688;2023-07-13T14:41:23;2.33;;;1.13;;
24216;SDS011;12356;49.386;8.688;2023-07-13T14:43:54;4.80;;;1.30;;
24216;SDS011;12356;49.386;8.688;2023-07-13T14:46:27;2.20;;;1.15;;
24216;SDS011;12356;49.386;8.688;2023-07-13T14:49:06;3.65;;;1.20;;
24216;SDS011;12356;49.386;8.688;2023-07-13T14:52:00;4.13;;;1.50;;
24216;SDS011;12356;49.386;8.688;2023-07-13T14:54:32;2.22;;;1.25;;
24216;SDS011;12356;49.386;8.688;2023-07-13T14:57:03;4.32;;;1.20;;
24216;SDS011;12356;49.386;8.688;2023-07-13T14:59:34;6.95;;;1.30;;
24216;SDS011;12356;49.386;8.688;2023-07-13T15:02:13;3.85;;;1.20;;
24216;SDS011;12356;49.386;8.688;2023-07-13T15:04:54;2.50;;;1.20;;
24216;SDS011;12356;49.386;8.688;2023-07-13T15:07:25;3.38;;;1.30;;
24216;SDS011;12356;49.386;8.688;2023-07-13T15:09:55;4.28;;;1.38;;
24216;SDS011;12356;49.386;8.688;2023-07-13T15:12:26;2.72;;;1.20;;
24216;SDS011;12356;49.386;8.688;2023-07-13T15:14:57;3.15;;;1.30;;
24216;SDS011;12356;49.386;8.688;2023-07-13T15:17:28;3.85;;;1.30;;
24216;SDS011;12356;49.386;8.688;2023-07-13T15:20:17;3.95;;;1.30;;
24216;SDS011;12356;49.386;8.688;2023-07-13T15:22:59;5.63;;;1.23;;
24216;SDS011;12356;49.386;8.688;2023-07-13T15:25:30;6.25;;;1.58;;
24216;SDS011;12356;49.386;8.688;2023-07-13T15:28:03;3.78;;;1.30;;
24216;SDS011;12356;49.386;8.688;2023-07-13T15:30:36;4.68;;;1.17;;
24216;SDS011;12356;49.386;8.688;2023-07-13T15:33:13;3.38;;;1.20;;
24216;SDS011;12356;49.386;8.688;2023-07-13T15:35:47;3.20;;;1.20;;
24216;SDS011;12356;49.386;8.688;2023-07-13T15:38:20;3.47;;;1.33;;
24216;SDS011;12356;49.386;8.688;2023-07-13T15:40:52;3.50;;;1.40;;
24216;SDS011;12356;49.386;8.688;2023-07-13T15:43:25;3.42;;;1.20;;
24216;SDS011;12356;49.386;8.688;2023-07-13T15:45:56;5.05;;;1.20;;
24216;SDS011;12356;49.386;8.688;2023-07-13T15:48:27;2.17;;;1.27;;
24216;SDS011;12356;49.386;8.688;2023-07-13T15:51:00;3.88;;;1.23;;
24216;SDS011;12356;49.386;8.688;2023-07-13T15:53:32;3.92;;;1.10;;
24216;SDS011;12356;49.386;8.688;2023-07-13T15:56:19;2.22;;;1.20;;
24216;SDS011;12356;49.386;8.688;2023-07-13T15:58:52;1.95;;;1.20;;
24216;SDS011;12356;49.386;8.688;2023-07-13T16:01:23;3.28;;;1.30;;
24216;SDS011;12356;49.386;8.688;2023-07-13T16:03:54;3.13;;;1.15;;
24216;SDS011;12356;49.386;8.688;2023-07-13T16:06:30;5.28;;;1.30;;
24216;SDS011;12356;49.386;8.688;2023-07-13T16:09:05;4.65;;;1.42;;
24216;SDS011;12356;49.386;8.688;2023-07-13T16:11:37;2.08;;;1.25;;
24216;SDS011;12356;49.386;8.688;2023-07-13T16:14:11;3.13;;;1.23;;
24216;SDS011;12356;49.386;8.688;2023-07-13T16:16:43;2.65;;;1.20;;
24216;SDS011;12356;49.386;8.688;2023-07-13T16:19:15;4.60;;;1.20;;
24216;SDS011;12356;49.386;8.688;2023-07-13T16:21:47;2.30;;;1.33;;
24216;SDS011;12356;49.386;8.688;2023-07-13T16:24:22;2.78;;;1.42;;
24216;SDS011;12356;49.386;8.688;2023-07-13T16:26:55;3.67;;;1.40;;
24216;SDS011;12356;49.386;8.688;2023-07-13T16:29:28;6.35;;;1.55;;
24216;SDS011;12356;49.386;8.688;2023-07-13T16:32:07;3.50;;;1.30;;